To NAV CANADA Home Page Login to a new session Search on AWWS site Feedback and Comments Disclaimer Vers la page française équivalente Tips FAQ What's new on the site To the Forecasts and Observations / NOTAM section To "File a Flight Plan" website Publications and other links Update of the User's profile FIC Telephone Numbers My Weather Data Folder Route Weather Data Regional Weather Data Local Weather Data To the Forecasts and Observations / NOTAM section
Request Generated 05/25/2017 at 01:12:58 UTC . Weather information available at that time is displayed.

METAR/TAF

ST. JOHN'S/ST. JOHN'S INTL/NL    

SPECI CYYT 250111Z 33004KT 1 1/2SM -DZ BR OVC003 06/06 A2979 RMK
FG4SF4 SLP092=
METAR CYYT 250100Z 34003KT 260V360 1 1/4SM -DZ BR OVC003 06/06 A2978
RMK FG6SF2 SLP090=
SPECI CYYT 250017Z CCA VRB02KT 5/8SM R29/6000FT/D R16/6000FT/D -DZ BR
VV003 06/06 A2977 RMK FG8 SLP088=
SPECI CYYT 250017Z VRB02KT 5/8SM R29/P6000FT/D R16/P6000FT/D -DZ BR
VV002 06/06 A2977 RMK FG8 SLP088=
SPECI CYYT 250010Z 24003KT 1 1/4SM -DZ BR OVC002 06/06 A2978 RMK
FG4SF4 SLP089=
SPECI CYYT 250008Z 24003KT 1 1/4SM BR OVC002 06/06 A2978 RMK FG4SF4
SLP089=
METAR CYYT 250000Z 24005KT 2SM BR OVC002 06/05 A2978 RMK SF8 SLP089=
SPECI CYYT 242327Z 18006KT 6SM BR OVC004 05/04 A2978 RMK SF8 VIS LWR
SW-W SLP091=
METAR CYYT 242300Z 15006KT 3SM -DZ BR OVC005 05/04 A2978 RMK SF8 VIS
LWR SW-W SLP090=

TAF CYYT 242338Z 2500/2524 15005KT 2SM -DZ BR OVC003 TEMPO 2500/2504
6SM BR OVC005
FM250400 34005KT 1/2SM FG VV002 TEMPO 2504/2515 2SM -DZ BR OVC004
BECMG 2504/2506 36015KT
FM251500 36015G25KT 6SM BR OVC006 TEMPO 2515/2523 3SM -DZ BR
FM252300 36012KT 2SM -DZ BR OVC003
RMK NXT FCST BY 250600Z=
Your time UTC time
Weather data provided by Environment Canada and NAV CANADA